createdAt,value
2018-06-15T00:00:17.645Z,60.40
2018-06-15T00:02:51.329Z,59.20
2018-06-15T00:05:19.861Z,59.60
2018-06-15T00:07:48.248Z,59.20
2018-06-15T00:10:16.613Z,60.20
2018-06-15T00:12:45.090Z,60.90
2018-06-15T00:15:13.761Z,59.60
2018-06-15T00:17:42.245Z,60.50
2018-06-15T00:20:10.708Z,60.30
2018-06-15T00:22:39.206Z,60.50
2018-06-15T00:25:07.626Z,60.50
2018-06-15T00:27:36.118Z,60.70
2018-06-15T00:30:04.902Z,61.00
2018-06-15T00:32:33.271Z,60.60
2018-06-15T00:35:01.694Z,61.00
2018-06-15T00:37:31.029Z,60.20
2018-06-15T00:39:59.542Z,59.20
2018-06-15T00:42:27.923Z,60.00
2018-06-15T00:44:56.481Z,60.70
2018-06-15T00:47:24.861Z,61.40
2018-06-15T00:49:53.261Z,61.30
2018-06-15T00:52:21.783Z,61.20
2018-06-15T00:54:50.178Z,61.70
2018-06-15T00:57:29.889Z,61.40
2018-06-15T00:59:58.305Z,61.90
2018-06-15T01:02:26.686Z,61.80
2018-06-15T01:04:55.031Z,61.70
2018-06-15T01:07:23.405Z,62.10
2018-06-15T01:09:51.765Z,62.20
2018-06-15T01:12:20.217Z,62.10
2018-06-15T01:14:48.638Z,61.90
2018-06-15T01:17:17.066Z,62.10
2018-06-15T01:19:45.835Z,62.10
2018-06-15T01:22:14.331Z,61.60
2018-06-15T01:24:42.690Z,61.90
2018-06-15T01:27:11.053Z,62.40
2018-06-15T01:29:39.571Z,62.50
2018-06-15T01:32:07.967Z,62.50
2018-06-15T01:34:36.352Z,62.80
2018-06-15T01:37:04.760Z,63.00
2018-06-15T01:39:33.113Z,63.20
2018-06-15T01:42:01.493Z,63.70
2018-06-15T01:44:29.824Z,64.10
2018-06-15T01:46:58.363Z,64.40
2018-06-15T01:49:26.746Z,64.40
2018-06-15T01:51:55.126Z,64.80
2018-06-15T01:54:23.613Z,64.60
2018-06-15T01:56:52.085Z,64.50
2018-06-15T01:59:20.456Z,65.50
2018-06-15T02:01:48.838Z,65.00
2018-06-15T02:04:17.217Z,64.90
2018-06-15T02:06:45.689Z,64.70
2018-06-15T02:09:14.071Z,64.90
2018-06-15T02:11:42.563Z,65.00
2018-06-15T02:14:10.956Z,65.20
2018-06-15T02:16:39.328Z,65.40
2018-06-15T02:19:07.698Z,65.60
2018-06-15T02:21:36.112Z,65.50
2018-06-15T02:24:04.957Z,65.70
2018-06-15T02:26:33.411Z,65.60
2018-06-15T02:29:01.776Z,65.60
2018-06-15T02:31:30.257Z,65.20
2018-06-15T02:33:58.712Z,64.90
2018-06-15T02:36:27.090Z,65.40
2018-06-15T02:38:55.458Z,65.60
2018-06-15T02:41:23.910Z,66.20
2018-06-15T02:43:52.287Z,65.50
2018-06-15T02:46:20.850Z,65.00
2018-06-15T02:48:49.214Z,64.80
2018-06-15T02:51:17.822Z,65.20
2018-06-15T02:53:46.181Z,65.60
2018-06-15T02:56:14.725Z,65.80
2018-06-15T03:01:11.180Z,65.30
2018-06-15T03:03:39.671Z,65.30
2018-06-15T03:06:08.229Z,65.10
2018-06-15T03:08:36.606Z,65.30
2018-06-15T03:11:05.126Z,65.50
2018-06-15T03:13:33.539Z,65.30
2018-06-15T03:16:01.942Z,64.70
2018-06-15T03:18:30.382Z,64.90
2018-06-15T03:20:58.903Z,65.10
2018-06-15T03:23:27.371Z,65.70
2018-06-15T03:25:55.733Z,65.80
2018-06-15T03:28:24.524Z,66.30
2018-06-15T03:30:52.868Z,66.50
2018-06-15T03:33:21.258Z,66.20
2018-06-15T03:35:49.733Z,65.90
2018-06-15T03:38:18.174Z,65.60
2018-06-15T03:40:46.555Z,65.40
2018-06-15T03:43:15.051Z,65.30
2018-06-15T03:45:43.577Z,65.80
2018-06-15T03:48:12.489Z,65.70
2018-06-15T03:50:41.056Z,65.10
2018-06-15T03:53:09.497Z,65.20
2018-06-15T03:55:37.890Z,65.40
2018-06-15T03:58:06.211Z,66.20
2018-06-15T04:00:34.677Z,66.20
2018-06-15T04:03:03.125Z,66.30
2018-06-15T04:05:31.513Z,66.00
2018-06-15T04:07:59.947Z,65.80
2018-06-15T04:10:28.474Z,66.00
2018-06-15T04:12:56.850Z,65.80
2018-06-15T04:15:25.271Z,65.70
2018-06-15T04:20:26.318Z,65.20
2018-06-15T04:22:55.182Z,65.00
2018-06-15T04:25:23.613Z,65.20
2018-06-15T04:27:52.017Z,65.40
2018-06-15T04:30:20.611Z,66.10
2018-06-15T04:32:49.059Z,66.10
2018-06-15T04:35:17.457Z,66.70
2018-06-15T04:37:46.253Z,66.40
2018-06-15T04:40:14.709Z,65.90
2018-06-15T04:42:43.529Z,66.20
2018-06-15T04:45:11.947Z,66.00
2018-06-15T04:47:40.372Z,65.70
2018-06-15T04:50:09.335Z,66.00
2018-06-15T04:52:37.696Z,65.60
2018-06-15T04:57:34.724Z,65.90
2018-06-15T05:00:03.281Z,65.80
2018-06-15T05:02:31.908Z,65.90
2018-06-15T05:05:00.994Z,65.80
2018-06-15T05:07:29.865Z,66.00
2018-06-15T05:09:58.270Z,66.00
2018-06-15T05:14:54.854Z,66.30
2018-06-15T05:17:23.559Z,66.20
2018-06-15T05:19:52.237Z,66.40
2018-06-15T05:22:20.685Z,65.90
2018-06-15T05:24:49.097Z,65.40
2018-06-15T05:27:17.435Z,65.50
2018-06-15T05:29:45.814Z,65.50
2018-06-15T05:32:14.339Z,65.10
2018-06-15T05:34:42.727Z,65.50
2018-06-15T05:37:11.141Z,65.50
2018-06-15T05:39:39.810Z,65.30
2018-06-15T05:42:08.233Z,65.10
2018-06-15T05:44:36.726Z,65.60
2018-06-15T05:47:05.333Z,65.50
2018-06-15T05:49:33.873Z,65.80
2018-06-15T05:52:02.222Z,65.40
2018-06-15T05:54:30.890Z,65.40
2018-06-15T05:56:59.366Z,65.60
2018-06-15T05:59:27.894Z,65.40
2018-06-15T06:01:56.431Z,65.50
2018-06-15T06:04:24.826Z,65.80
2018-06-15T06:06:53.395Z,66.00
2018-06-15T06:09:21.785Z,65.70
2018-06-15T06:11:50.375Z,65.70
2018-06-15T06:14:18.820Z,66.10
2018-06-15T06:16:47.424Z,65.70
2018-06-15T06:19:15.897Z,65.80
2018-06-15T06:21:44.278Z,66.00
2018-06-15T06:24:12.725Z,66.10
2018-06-15T06:26:41.220Z,66.00
2018-06-15T06:29:09.582Z,65.50
2018-06-15T06:31:38.014Z,65.80
2018-06-15T06:34:06.978Z,66.10
2018-06-15T06:36:35.466Z,66.10
2018-06-15T06:39:05.843Z,65.80
2018-06-15T06:41:34.274Z,65.60
2018-06-15T06:44:03.057Z,65.20
2018-06-15T06:46:31.628Z,64.60
2018-06-15T06:49:00.043Z,65.20
2018-06-15T06:51:28.533Z,65.00
2018-06-15T06:53:56.960Z,65.50
2018-06-15T06:56:25.846Z,64.90
2018-06-15T06:58:54.249Z,65.30
2018-06-15T07:01:22.637Z,65.50
2018-06-15T07:03:51.108Z,65.00
2018-06-15T07:06:19.707Z,65.00
2018-06-15T07:08:48.064Z,64.30
2018-06-15T07:11:16.501Z,63.70
2018-06-15T07:13:45.327Z,63.70
2018-06-15T07:16:13.822Z,63.40
2018-06-15T07:18:42.199Z,63.70
2018-06-15T07:21:10.738Z,64.30
2018-06-15T07:23:39.287Z,64.60
2018-06-15T07:26:07.923Z,64.40
2018-06-15T07:28:36.433Z,64.20
2018-06-15T07:31:05.179Z,63.00
2018-06-15T07:33:33.740Z,62.90
2018-06-15T07:36:02.065Z,63.20
2018-06-15T07:38:30.577Z,62.90
2018-06-15T07:40:59.038Z,63.30
2018-06-15T07:43:27.625Z,62.90
2018-06-15T07:45:56.199Z,63.30
2018-06-15T07:48:24.915Z,62.90
2018-06-15T07:50:53.489Z,63.50
2018-06-15T07:53:22.161Z,62.10
2018-06-15T07:55:50.539Z,62.00
2018-06-15T07:58:19.087Z,61.70
2018-06-15T08:00:47.685Z,61.50
2018-06-15T08:03:16.194Z,62.00
2018-06-15T08:05:44.618Z,61.70
2018-06-15T08:08:13.315Z,62.40
2018-06-15T08:10:41.746Z,62.90
2018-06-15T08:13:10.121Z,62.50
2018-06-15T08:15:38.661Z,62.00
2018-06-15T08:18:07.154Z,61.80
2018-06-15T08:20:35.673Z,61.70
2018-06-15T08:23:04.061Z,60.40
2018-06-15T08:25:32.514Z,62.20
2018-06-15T08:28:01.039Z,62.60
2018-06-15T08:30:29.409Z,62.80
2018-06-15T08:32:57.794Z,62.10
2018-06-15T08:35:26.255Z,61.90
2018-06-15T08:37:54.687Z,62.40
2018-06-15T08:40:23.189Z,62.90
2018-06-15T08:42:51.611Z,62.90
2018-06-15T08:45:20.012Z,62.00
2018-06-15T08:47:48.446Z,62.30
2018-06-15T08:50:16.806Z,62.50
2018-06-15T08:52:45.295Z,62.50
2018-06-15T08:55:13.797Z,61.90
2018-06-15T08:57:42.246Z,61.20
2018-06-15T09:00:10.608Z,60.50
2018-06-15T09:02:39.053Z,60.60
2018-06-15T09:05:07.526Z,60.40
2018-06-15T09:07:36.048Z,60.70
2018-06-15T09:10:04.574Z,60.40
2018-06-15T09:12:32.947Z,60.60
2018-06-15T09:15:01.330Z,60.70
2018-06-15T09:17:29.845Z,60.10
2018-06-15T09:19:58.214Z,59.80
2018-06-15T09:22:26.596Z,60.80
2018-06-15T09:24:54.975Z,59.40
2018-06-15T09:27:23.952Z,58.00
2018-06-15T09:29:52.549Z,58.00
2018-06-15T09:32:21.011Z,58.10
2018-06-15T09:34:49.491Z,57.40
2018-06-15T09:37:17.929Z,57.00
2018-06-15T09:39:46.431Z,56.10
2018-06-15T09:42:14.882Z,56.40
2018-06-15T09:44:43.512Z,56.40
2018-06-15T09:47:11.966Z,56.00
2018-06-15T09:49:40.497Z,56.30
2018-06-15T09:52:08.877Z,56.20
2018-06-15T09:54:37.286Z,56.30
2018-06-15T09:57:06.006Z,57.30
2018-06-15T09:59:34.459Z,56.80
2018-06-15T10:02:02.917Z,56.40
2018-06-15T10:04:31.453Z,55.90
2018-06-15T10:06:59.828Z,55.30
2018-06-15T10:09:28.191Z,54.20
2018-06-15T10:11:56.537Z,53.70
2018-06-15T10:14:24.918Z,53.10
2018-06-15T10:16:53.294Z,52.90
2018-06-15T10:19:21.655Z,52.90
2018-06-15T10:21:50.267Z,53.90
2018-06-15T10:24:18.646Z,53.80
2018-06-15T10:26:47.067Z,54.10
2018-06-15T10:29:15.582Z,54.10
2018-06-15T10:31:43.925Z,54.30
2018-06-15T10:34:12.455Z,55.20
2018-06-15T10:36:40.878Z,54.70
2018-06-15T10:39:10.790Z,54.50
2018-06-15T10:41:39.565Z,54.30
2018-06-15T10:44:08.058Z,53.90
2018-06-15T10:46:36.437Z,53.00
2018-06-15T10:49:04.998Z,53.80
2018-06-15T10:51:33.684Z,54.40
2018-06-15T10:54:02.170Z,55.50
2018-06-15T10:56:30.579Z,54.10
2018-06-15T10:58:59.009Z,53.60
2018-06-15T11:01:27.389Z,53.30
2018-06-15T11:03:55.881Z,52.30
2018-06-15T11:06:24.261Z,52.30
2018-06-15T11:08:52.774Z,52.50
2018-06-15T11:11:21.271Z,52.30
2018-06-15T11:13:49.661Z,51.90
2018-06-15T11:16:18.306Z,51.50
2018-06-15T11:18:46.817Z,51.50
2018-06-15T11:21:15.228Z,52.00
2018-06-15T11:23:43.572Z,51.00
2018-06-15T11:26:12.001Z,50.50
2018-06-15T11:28:40.386Z,51.50
2018-06-15T11:31:08.927Z,50.70
2018-06-15T11:33:37.262Z,50.80
2018-06-15T11:36:05.780Z,51.20
2018-06-15T11:38:34.327Z,49.30
2018-06-15T11:41:02.750Z,49.10
2018-06-15T11:43:31.206Z,48.40
2018-06-15T11:45:59.711Z,48.80
2018-06-15T11:48:28.119Z,50.40
2018-06-15T11:50:56.741Z,49.70
2018-06-15T11:53:25.092Z,48.40
2018-06-15T11:55:53.521Z,49.20
2018-06-15T11:58:21.906Z,48.90
2018-06-15T12:00:50.429Z,49.00
2018-06-15T12:03:18.794Z,48.80
2018-06-15T12:05:47.192Z,47.90
2018-06-15T12:08:15.663Z,48.40
2018-06-15T12:10:44.018Z,47.40
2018-06-15T12:13:12.434Z,48.80
2018-06-15T12:15:40.927Z,48.60
2018-06-15T12:18:09.313Z,48.40
2018-06-15T12:20:37.692Z,47.10
2018-06-15T12:23:06.121Z,48.00
2018-06-15T12:25:34.549Z,47.70
2018-06-15T12:28:03.306Z,48.10
2018-06-15T12:30:31.735Z,46.70
2018-06-15T12:33:00.207Z,46.20
2018-06-15T12:35:28.622Z,46.40
2018-06-15T12:37:57.139Z,46.20
2018-06-15T12:40:25.501Z,44.60
2018-06-15T12:42:53.958Z,45.60
2018-06-15T12:45:22.334Z,45.50
2018-06-15T12:47:50.931Z,45.60
2018-06-15T12:50:19.369Z,46.30
2018-06-15T12:52:47.879Z,44.90
2018-06-15T12:55:16.373Z,45.30
2018-06-15T12:57:44.896Z,45.30
2018-06-15T13:00:13.503Z,44.90
2018-06-15T13:02:41.995Z,44.50
2018-06-15T13:05:10.491Z,45.20
2018-06-15T13:07:38.985Z,45.30
2018-06-15T13:10:07.544Z,44.90
2018-06-15T13:12:35.968Z,44.80
2018-06-15T13:15:04.537Z,45.50
2018-06-15T13:17:32.917Z,46.00
2018-06-15T13:20:01.445Z,45.70
2018-06-15T13:22:29.985Z,46.30
2018-06-15T13:24:58.369Z,46.90
2018-06-15T13:27:26.925Z,46.30
2018-06-15T13:29:55.385Z,44.70
2018-06-15T13:32:23.790Z,45.00
2018-06-15T13:34:52.283Z,46.00
2018-06-15T13:37:20.821Z,44.50
2018-06-15T13:39:49.454Z,44.50
2018-06-15T13:42:17.878Z,44.70
2018-06-15T13:44:46.389Z,44.80
2018-06-15T13:47:14.777Z,44.90
2018-06-15T13:49:43.171Z,44.40
2018-06-15T13:52:11.573Z,44.90
2018-06-15T13:54:40.033Z,45.60
2018-06-15T13:57:08.494Z,45.80
2018-06-15T13:59:36.958Z,45.30
2018-06-15T14:02:06.311Z,44.40
2018-06-15T14:04:34.678Z,44.80
2018-06-15T14:07:03.218Z,45.10
2018-06-15T14:09:31.737Z,45.20
2018-06-15T14:12:00.164Z,44.90
2018-06-15T14:14:28.848Z,44.40
2018-06-15T14:16:57.377Z,44.50
2018-06-15T14:19:25.973Z,44.60
2018-06-15T14:21:54.514Z,43.60
2018-06-15T14:24:23.005Z,44.30
2018-06-15T14:26:51.547Z,44.30
2018-06-15T14:29:19.998Z,43.60
2018-06-15T14:31:48.655Z,42.90
2018-06-15T14:34:17.138Z,44.20
2018-06-15T14:36:45.604Z,43.10
2018-06-15T14:39:14.175Z,42.40
2018-06-15T14:41:42.747Z,42.40
2018-06-15T14:44:11.142Z,42.40
2018-06-15T14:46:39.529Z,42.20
2018-06-15T14:49:07.934Z,43.30
2018-06-15T14:51:36.630Z,42.40
2018-06-15T14:54:04.993Z,41.70
2018-06-15T14:56:33.553Z,41.60
2018-06-15T14:59:02.097Z,40.70
2018-06-15T15:01:30.595Z,40.60
2018-06-15T15:03:59.010Z,40.80
2018-06-15T15:06:27.449Z,41.10
2018-06-15T15:08:55.821Z,41.20
2018-06-15T15:11:24.461Z,40.50
2018-06-15T15:13:52.911Z,41.40
2018-06-15T15:16:21.435Z,41.70
2018-06-15T15:21:18.337Z,43.00
2018-06-15T15:23:46.743Z,43.00
2018-06-15T15:26:15.211Z,42.80
2018-06-15T15:28:43.688Z,43.20
2018-06-15T15:31:12.136Z,45.00
2018-06-15T15:33:40.800Z,45.00
2018-06-15T15:36:09.265Z,45.80
2018-06-15T15:38:37.657Z,46.50
2018-06-15T15:41:06.181Z,46.70
2018-06-15T15:43:34.624Z,46.20
2018-06-15T15:46:03.357Z,46.60
2018-06-15T15:48:31.834Z,46.50
2018-06-15T15:51:00.266Z,46.50
2018-06-15T15:53:28.699Z,47.00
2018-06-15T15:55:57.249Z,47.50
2018-06-15T15:58:25.650Z,48.00
2018-06-15T16:00:54.060Z,47.80
2018-06-15T16:03:22.438Z,47.10
2018-06-15T16:05:50.958Z,47.30
2018-06-15T16:08:19.707Z,47.10
2018-06-15T16:10:48.135Z,47.00
2018-06-15T16:13:16.534Z,47.40
2018-06-15T16:15:44.970Z,47.60
2018-06-15T16:18:13.456Z,46.30
2018-06-15T16:20:41.961Z,45.70
2018-06-15T16:23:10.347Z,45.20
2018-06-15T16:25:38.771Z,44.80
2018-06-15T16:28:07.296Z,44.70
2018-06-15T16:30:35.833Z,44.80
2018-06-15T16:33:04.340Z,44.70
2018-06-15T16:35:32.883Z,44.20
2018-06-15T16:38:01.491Z,44.20
2018-06-15T16:40:29.903Z,44.40
2018-06-15T16:42:58.369Z,44.90
2018-06-15T16:45:26.791Z,45.10
2018-06-15T16:47:55.375Z,44.50
2018-06-15T16:50:24.047Z,45.40
2018-06-15T16:52:52.478Z,46.10
2018-06-15T16:55:21.142Z,45.40
2018-06-15T16:57:49.637Z,45.40
2018-06-15T17:02:46.146Z,45.70
2018-06-15T17:05:14.603Z,46.70
2018-06-15T17:07:42.974Z,45.30
2018-06-15T17:10:11.708Z,45.80
2018-06-15T17:12:40.552Z,45.40
2018-06-15T17:15:09.156Z,46.00
2018-06-15T17:17:37.569Z,46.80
2018-06-15T17:20:06.086Z,46.00
2018-06-15T17:22:34.576Z,46.10
2018-06-15T17:25:03.379Z,44.90
2018-06-15T17:27:31.991Z,44.60
2018-06-15T17:30:00.771Z,45.00
2018-06-15T17:32:29.426Z,45.40
2018-06-15T17:34:58.038Z,45.20
2018-06-15T17:37:26.474Z,45.10
2018-06-15T17:39:54.870Z,45.60
2018-06-15T17:42:23.327Z,45.70
2018-06-15T17:44:51.802Z,45.80
2018-06-15T17:47:20.537Z,45.60
2018-06-15T17:49:49.016Z,45.80
2018-06-15T17:52:17.561Z,46.00
2018-06-15T17:54:45.942Z,46.20
2018-06-15T17:57:14.330Z,46.40
2018-06-15T17:59:42.791Z,46.10
2018-06-15T18:02:11.179Z,45.70
2018-06-15T18:04:39.682Z,45.60
2018-06-15T18:07:08.230Z,45.70
2018-06-15T18:09:36.741Z,46.10
2018-06-15T18:12:05.137Z,46.80
2018-06-15T18:14:33.618Z,47.10
2018-06-15T18:17:02.055Z,47.10
2018-06-15T18:19:30.743Z,47.00
2018-06-15T18:21:59.268Z,46.70
2018-06-15T18:24:27.635Z,46.50
2018-06-15T18:26:56.150Z,46.80
2018-06-15T18:29:24.534Z,48.80
2018-06-15T18:31:53.053Z,48.20
2018-06-15T18:34:21.449Z,48.00
2018-06-15T18:36:49.854Z,48.50
2018-06-15T18:39:18.213Z,49.00
2018-06-15T18:41:46.611Z,49.00
2018-06-15T18:44:14.967Z,49.30
2018-06-15T18:46:43.562Z,49.70
2018-06-15T18:49:12.175Z,49.70
2018-06-15T18:51:40.572Z,50.20
2018-06-15T18:54:09.265Z,50.00
2018-06-15T18:56:37.693Z,50.10
2018-06-15T18:59:06.122Z,50.20
2018-06-15T19:01:34.607Z,50.10
2018-06-15T19:04:03.064Z,50.00
2018-06-15T19:06:31.498Z,50.30
2018-06-15T19:09:00.073Z,51.30
2018-06-15T19:11:28.553Z,50.80
2018-06-15T19:13:57.007Z,53.70
2018-06-15T19:16:26.205Z,53.30
2018-06-15T19:18:54.715Z,52.80
2018-06-15T19:21:23.132Z,53.10
2018-06-15T19:23:51.486Z,54.30
2018-06-15T19:26:20.043Z,54.90
2018-06-15T19:28:48.541Z,55.90
2018-06-15T19:31:16.954Z,56.00
2018-06-15T19:33:45.500Z,56.50
2018-06-15T19:36:14.308Z,56.20
2018-06-15T19:38:42.999Z,56.70
2018-06-15T19:41:11.578Z,56.30
2018-06-15T19:46:08.308Z,56.80
2018-06-15T19:48:36.893Z,56.80
2018-06-15T19:51:05.512Z,57.20
2018-06-15T19:53:34.352Z,56.80
2018-06-15T19:56:02.865Z,56.50
2018-06-15T19:58:31.426Z,56.10
2018-06-15T20:01:01.018Z,56.80
2018-06-15T20:03:29.616Z,56.80
2018-06-15T20:05:58.384Z,57.30
2018-06-15T20:08:27.004Z,57.50
2018-06-15T20:10:55.566Z,57.60
2018-06-15T20:13:24.462Z,57.90
2018-06-15T20:15:53.548Z,58.00
2018-06-15T20:18:22.308Z,58.10
2018-06-15T20:20:50.825Z,59.30
2018-06-15T20:23:19.321Z,58.50
2018-06-15T20:25:47.887Z,58.60
2018-06-15T20:28:16.569Z,59.00
2018-06-15T20:30:45.146Z,59.00
2018-06-15T20:33:13.524Z,59.20
2018-06-15T20:35:42.071Z,59.60
2018-06-15T20:38:10.518Z,59.80
2018-06-15T20:40:39.137Z,59.50
2018-06-15T20:43:07.875Z,59.80
2018-06-15T20:45:36.574Z,60.00
2018-06-15T20:48:05.028Z,60.00
2018-06-15T20:50:33.549Z,60.20
2018-06-15T20:53:02.344Z,60.10
2018-06-15T20:55:30.851Z,60.70
2018-06-15T20:57:59.639Z,60.60
2018-06-15T21:00:28.121Z,60.80
2018-06-15T21:02:56.502Z,60.80
2018-06-15T21:05:25.204Z,60.90
2018-06-15T21:07:53.660Z,61.10
2018-06-15T21:10:22.175Z,61.90
2018-06-15T21:12:50.554Z,61.60
2018-06-15T21:15:18.967Z,61.50
2018-06-15T21:17:47.442Z,62.10
2018-06-15T21:20:15.907Z,62.30
2018-06-15T21:22:44.325Z,62.90
2018-06-15T21:25:12.744Z,62.30
2018-06-15T21:27:41.261Z,63.30
2018-06-15T21:30:09.641Z,63.70
2018-06-15T21:32:38.038Z,63.50
2018-06-15T21:35:06.713Z,63.30
2018-06-15T21:37:35.105Z,63.50
2018-06-15T21:40:03.578Z,63.70
2018-06-15T21:42:32.236Z,63.70
2018-06-15T21:45:00.748Z,63.70
2018-06-15T21:47:29.177Z,64.20
2018-06-15T21:49:57.758Z,64.00
2018-06-15T21:52:26.306Z,64.60
2018-06-15T21:54:54.995Z,64.90
2018-06-15T21:57:23.650Z,64.80
2018-06-15T21:59:52.253Z,65.00
2018-06-15T22:02:20.676Z,65.40
2018-06-15T22:04:49.286Z,65.80
2018-06-15T22:07:17.754Z,66.00
2018-06-15T22:09:46.283Z,65.60
2018-06-15T22:12:14.858Z,65.90
2018-06-15T22:14:43.366Z,66.00
2018-06-15T22:17:11.769Z,65.50
2018-06-15T22:19:40.306Z,65.80
2018-06-15T22:22:08.813Z,65.80
2018-06-15T22:24:37.321Z,65.80
2018-06-15T22:27:05.853Z,65.50
2018-06-15T22:29:34.364Z,66.10
2018-06-15T22:32:02.943Z,65.70
2018-06-15T22:34:31.438Z,65.20
2018-06-15T22:36:59.860Z,65.10
2018-06-15T22:39:28.352Z,64.90
2018-06-15T22:41:56.838Z,64.90
2018-06-15T22:44:25.226Z,65.20
2018-06-15T22:46:53.889Z,64.90
2018-06-15T22:49:22.364Z,65.20
2018-06-15T22:51:50.966Z,66.40
2018-06-15T22:54:19.394Z,67.10
2018-06-15T22:56:47.918Z,67.10
2018-06-15T22:59:16.347Z,67.00
2018-06-15T23:01:44.769Z,66.80
2018-06-15T23:04:13.184Z,66.50
2018-06-15T23:06:41.515Z,67.20
2018-06-15T23:09:11.686Z,67.50
2018-06-15T23:11:41.221Z,66.90
2018-06-15T23:14:10.043Z,66.70
2018-06-15T23:16:38.610Z,66.70
2018-06-15T23:19:07.351Z,66.50
2018-06-15T23:21:35.953Z,66.40
2018-06-15T23:24:04.820Z,66.80
2018-06-15T23:26:33.610Z,66.50
2018-06-15T23:29:02.603Z,66.70
2018-06-15T23:31:31.352Z,66.80
2018-06-15T23:34:00.533Z,66.90
2018-06-15T23:36:29.057Z,67.10
2018-06-15T23:38:57.933Z,67.00
2018-06-15T23:41:27.262Z,67.00
2018-06-15T23:43:55.641Z,67.20
2018-06-15T23:46:24.217Z,67.30
2018-06-15T23:51:20.742Z,67.60
2018-06-15T23:53:49.160Z,67.60
2018-06-15T23:56:17.574Z,67.60
2018-06-15T23:58:45.917Z,67.30
